sensor_id;sensor_type;location;lat;lon;timestamp;P1;durP1;ratioP1;P2;durP2;ratioP2
1004;SDS011;491;53.480;10.174;2023-04-25T00:01:17;5.30;;;2.17;;
1004;SDS011;491;53.480;10.174;2023-04-25T00:03:43;5.33;;;1.97;;
1004;SDS011;491;53.480;10.174;2023-04-25T00:06:09;2.47;;;1.73;;
1004;SDS011;491;53.480;10.174;2023-04-25T00:08:35;5.07;;;2.10;;
1004;SDS011;491;53.480;10.174;2023-04-25T00:11:00;5.60;;;2.53;;
1004;SDS011;491;53.480;10.174;2023-04-25T00:13:26;6.03;;;2.70;;
1004;SDS011;491;53.480;10.174;2023-04-25T00:15:52;3.87;;;2.40;;
1004;SDS011;491;53.480;10.174;2023-04-25T00:18:18;5.93;;;3.30;;
1004;SDS011;491;53.480;10.174;2023-04-25T00:20:44;3.63;;;2.50;;
1004;SDS011;491;53.480;10.174;2023-04-25T00:23:12;4.33;;;2.53;;
1004;SDS011;491;53.480;10.174;2023-04-25T00:25:43;4.40;;;1.83;;
1004;SDS011;491;53.480;10.174;2023-04-25T00:28:09;5.00;;;2.07;;
1004;SDS011;491;53.480;10.174;2023-04-25T00:30:35;3.30;;;1.83;;
1004;SDS011;491;53.480;10.174;2023-04-25T00:33:01;4.27;;;2.00;;
1004;SDS011;491;53.480;10.174;2023-04-25T00:35:26;5.20;;;2.40;;
1004;SDS011;491;53.480;10.174;2023-04-25T00:37:52;5.30;;;2.63;;
1004;SDS011;491;53.480;10.174;2023-04-25T00:40:18;10.83;;;2.50;;
1004;SDS011;491;53.480;10.174;2023-04-25T00:42:44;12.40;;;2.60;;
1004;SDS011;491;53.480;10.174;2023-04-25T00:45:12;5.23;;;2.43;;
1004;SDS011;491;53.480;10.174;2023-04-25T00:47:42;7.20;;;1.70;;
1004;SDS011;491;53.480;10.174;2023-04-25T00:50:07;9.37;;;2.90;;
1004;SDS011;491;53.480;10.174;2023-04-25T00:52:33;9.10;;;2.87;;
1004;SDS011;491;53.480;10.174;2023-04-25T00:54:59;12.30;;;3.43;;
1004;SDS011;491;53.480;10.174;2023-04-25T00:57:25;9.33;;;1.90;;
1004;SDS011;491;53.480;10.174;2023-04-25T00:59:51;6.43;;;2.57;;
1004;SDS011;491;53.480;10.174;2023-04-25T01:02:18;14.57;;;3.30;;
1004;SDS011;491;53.480;10.174;2023-04-25T01:04:45;12.47;;;3.30;;
1004;SDS011;491;53.480;10.174;2023-04-25T01:07:12;10.50;;;2.37;;
1004;SDS011;491;53.480;10.174;2023-04-25T01:09:38;13.70;;;2.50;;
1004;SDS011;491;53.480;10.174;2023-04-25T01:12:05;11.13;;;2.20;;
1004;SDS011;491;53.480;10.174;2023-04-25T01:14:35;10.23;;;2.53;;
1004;SDS011;491;53.480;10.174;2023-04-25T01:17:01;10.53;;;2.80;;
1004;SDS011;491;53.480;10.174;2023-04-25T01:19:30;7.60;;;2.90;;
1004;SDS011;491;53.480;10.174;2023-04-25T01:21:55;19.33;;;3.70;;
1004;SDS011;491;53.480;10.174;2023-04-25T01:24:21;9.40;;;2.50;;
1004;SDS011;491;53.480;10.174;2023-04-25T01:26:47;9.33;;;2.87;;
1004;SDS011;491;53.480;10.174;2023-04-25T01:29:18;7.07;;;2.00;;
1004;SDS011;491;53.480;10.174;2023-04-25T01:31:45;10.50;;;2.60;;
1004;SDS011;491;53.480;10.174;2023-04-25T01:34:12;13.37;;;3.27;;
1004;SDS011;491;53.480;10.174;2023-04-25T01:36:38;10.80;;;2.67;;
1004;SDS011;491;53.480;10.174;2023-04-25T01:39:04;9.27;;;2.70;;
1004;SDS011;491;53.480;10.174;2023-04-25T01:41:29;11.03;;;3.23;;
1004;SDS011;491;53.480;10.174;2023-04-25T01:43:55;9.10;;;2.90;;
1004;SDS011;491;53.480;10.174;2023-04-25T01:46:21;15.73;;;3.30;;
1004;SDS011;491;53.480;10.174;2023-04-25T01:48:47;9.43;;;1.47;;
1004;SDS011;491;53.480;10.174;2023-04-25T01:51:15;17.93;;;3.87;;
1004;SDS011;491;53.480;10.174;2023-04-25T01:53:41;17.50;;;3.63;;
1004;SDS011;491;53.480;10.174;2023-04-25T01:56:07;12.17;;;4.30;;
1004;SDS011;491;53.480;10.174;2023-04-25T01:58:33;14.20;;;3.37;;
1004;SDS011;491;53.480;10.174;2023-04-25T02:00:58;10.13;;;3.53;;
1004;SDS011;491;53.480;10.174;2023-04-25T02:03:24;7.50;;;1.87;;
1004;SDS011;491;53.480;10.174;2023-04-25T02:05:50;8.73;;;2.83;;
1004;SDS011;491;53.480;10.174;2023-04-25T02:08:16;16.10;;;3.37;;
1004;SDS011;491;53.480;10.174;2023-04-25T02:10:42;9.00;;;2.57;;
1004;SDS011;491;53.480;10.174;2023-04-25T02:13:08;16.30;;;2.67;;
1004;SDS011;491;53.480;10.174;2023-04-25T02:15:33;11.07;;;2.70;;
1004;SDS011;491;53.480;10.174;2023-04-25T02:17:59;17.40;;;3.97;;
1004;SDS011;491;53.480;10.174;2023-04-25T02:20:25;14.30;;;3.27;;
1004;SDS011;491;53.480;10.174;2023-04-25T02:22:51;12.40;;;3.20;;
1004;SDS011;491;53.480;10.174;2023-04-25T02:25:17;9.27;;;2.10;;
1004;SDS011;491;53.480;10.174;2023-04-25T02:27:45;9.47;;;2.17;;
1004;SDS011;491;53.480;10.174;2023-04-25T02:30:11;8.70;;;2.73;;
1004;SDS011;491;53.480;10.174;2023-04-25T02:32:37;7.63;;;2.23;;
1004;SDS011;491;53.480;10.174;2023-04-25T02:35:03;20.20;;;3.87;;
1004;SDS011;491;53.480;10.174;2023-04-25T02:37:32;15.03;;;3.57;;
1004;SDS011;491;53.480;10.174;2023-04-25T02:39:59;11.33;;;3.40;;
1004;SDS011;491;53.480;10.174;2023-04-25T02:42:25;10.00;;;2.50;;
1004;SDS011;491;53.480;10.174;2023-04-25T02:44:51;13.27;;;3.27;;
1004;SDS011;491;53.480;10.174;2023-04-25T02:47:17;9.80;;;2.00;;
1004;SDS011;491;53.480;10.174;2023-04-25T02:49:42;8.43;;;2.63;;
1004;SDS011;491;53.480;10.174;2023-04-25T02:52:11;16.83;;;3.27;;
1004;SDS011;491;53.480;10.174;2023-04-25T02:54:37;14.07;;;2.67;;
1004;SDS011;491;53.480;10.174;2023-04-25T02:57:06;12.30;;;3.73;;
1004;SDS011;491;53.480;10.174;2023-04-25T02:59:31;11.30;;;2.20;;
1004;SDS011;491;53.480;10.174;2023-04-25T03:01:57;11.83;;;2.63;;
1004;SDS011;491;53.480;10.174;2023-04-25T03:04:23;7.83;;;2.53;;
1004;SDS011;491;53.480;10.174;2023-04-25T03:06:49;10.90;;;3.57;;
1004;SDS011;491;53.480;10.174;2023-04-25T03:09:18;6.73;;;1.93;;
1004;SDS011;491;53.480;10.174;2023-04-25T03:11:44;12.33;;;2.80;;
1004;SDS011;491;53.480;10.174;2023-04-25T03:14:10;12.83;;;2.60;;
1004;SDS011;491;53.480;10.174;2023-04-25T03:16:36;15.20;;;3.37;;
1004;SDS011;491;53.480;10.174;2023-04-25T03:19:02;10.43;;;2.70;;
1004;SDS011;491;53.480;10.174;2023-04-25T03:21:28;11.20;;;3.07;;
1004;SDS011;491;53.480;10.174;2023-04-25T03:23:56;12.67;;;2.80;;
1004;SDS011;491;53.480;10.174;2023-04-25T03:26:22;13.23;;;2.13;;
1004;SDS011;491;53.480;10.174;2023-04-25T03:28:47;6.70;;;3.40;;
1004;SDS011;491;53.480;10.174;2023-04-25T03:31:13;10.80;;;2.43;;
1004;SDS011;491;53.480;10.174;2023-04-25T03:33:38;17.33;;;4.47;;
1004;SDS011;491;53.480;10.174;2023-04-25T03:36:04;13.17;;;2.30;;
1004;SDS011;491;53.480;10.174;2023-04-25T03:38:30;8.43;;;1.83;;
1004;SDS011;491;53.480;10.174;2023-04-25T03:40:56;13.13;;;2.90;;
1004;SDS011;491;53.480;10.174;2023-04-25T03:43:21;7.80;;;2.90;;
1004;SDS011;491;53.480;10.174;2023-04-25T03:45:47;12.83;;;2.53;;
1004;SDS011;491;53.480;10.174;2023-04-25T03:48:12;11.43;;;3.40;;
1004;SDS011;491;53.480;10.174;2023-04-25T03:50:38;17.67;;;4.50;;
1004;SDS011;491;53.480;10.174;2023-04-25T03:53:03;14.60;;;2.50;;
1004;SDS011;491;53.480;10.174;2023-04-25T03:55:29;9.27;;;2.00;;
1004;SDS011;491;53.480;10.174;2023-04-25T03:57:55;15.20;;;3.30;;
1004;SDS011;491;53.480;10.174;2023-04-25T04:00:25;12.47;;;2.27;;
1004;SDS011;491;53.480;10.174;2023-04-25T04:02:51;11.87;;;2.70;;
1004;SDS011;491;53.480;10.174;2023-04-25T04:05:16;7.03;;;2.53;;
1004;SDS011;491;53.480;10.174;2023-04-25T04:07:42;10.80;;;2.67;;
1004;SDS011;491;53.480;10.174;2023-04-25T04:10:08;10.07;;;1.70;;
1004;SDS011;491;53.480;10.174;2023-04-25T04:12:34;13.60;;;2.40;;
1004;SDS011;491;53.480;10.174;2023-04-25T04:15:03;12.10;;;2.40;;
1004;SDS011;491;53.480;10.174;2023-04-25T04:17:30;11.87;;;4.07;;
1004;SDS011;491;53.480;10.174;2023-04-25T04:19:55;7.30;;;1.80;;
1004;SDS011;491;53.480;10.174;2023-04-25T04:22:21;8.10;;;2.30;;
1004;SDS011;491;53.480;10.174;2023-04-25T04:24:47;14.02;;;2.58;;
1004;SDS011;491;53.480;10.174;2023-04-25T04:27:19;11.90;;;2.73;;
1004;SDS011;491;53.480;10.174;2023-04-25T04:29:47;9.67;;;2.30;;
1004;SDS011;491;53.480;10.174;2023-04-25T04:32:13;8.77;;;1.40;;
1004;SDS011;491;53.480;10.174;2023-04-25T04:34:40;7.67;;;1.83;;
1004;SDS011;491;53.480;10.174;2023-04-25T04:37:06;10.47;;;2.60;;
1004;SDS011;491;53.480;10.174;2023-04-25T04:39:32;3.47;;;1.23;;
1004;SDS011;491;53.480;10.174;2023-04-25T04:41:59;6.17;;;1.20;;
1004;SDS011;491;53.480;10.174;2023-04-25T04:44:26;4.97;;;1.67;;
1004;SDS011;491;53.480;10.174;2023-04-25T04:46:53;8.93;;;1.70;;
1004;SDS011;491;53.480;10.174;2023-04-25T04:49:19;10.20;;;1.57;;
1004;SDS011;491;53.480;10.174;2023-04-25T04:51:45;7.03;;;1.43;;
1004;SDS011;491;53.480;10.174;2023-04-25T04:54:11;13.53;;;1.97;;
1004;SDS011;491;53.480;10.174;2023-04-25T04:56:37;7.70;;;2.37;;
1004;SDS011;491;53.480;10.174;2023-04-25T04:59:03;9.80;;;2.10;;
1004;SDS011;491;53.480;10.174;2023-04-25T05:01:28;5.50;;;1.57;;
1004;SDS011;491;53.480;10.174;2023-04-25T05:03:55;7.17;;;1.73;;
1004;SDS011;491;53.480;10.174;2023-04-25T05:06:25;9.53;;;2.77;;
1004;SDS011;491;53.480;10.174;2023-04-25T05:08:51;9.57;;;2.10;;
1004;SDS011;491;53.480;10.174;2023-04-25T05:11:17;4.57;;;1.50;;
1004;SDS011;491;53.480;10.174;2023-04-25T05:13:43;8.27;;;1.73;;
1004;SDS011;491;53.480;10.174;2023-04-25T05:16:09;8.73;;;2.07;;
1004;SDS011;491;53.480;10.174;2023-04-25T05:18:34;7.50;;;2.30;;
1004;SDS011;491;53.480;10.174;2023-04-25T05:21:01;16.40;;;3.40;;
1004;SDS011;491;53.480;10.174;2023-04-25T05:23:26;13.87;;;2.77;;
1004;SDS011;491;53.480;10.174;2023-04-25T05:25:52;12.90;;;2.43;;
1004;SDS011;491;53.480;10.174;2023-04-25T05:28:18;8.47;;;3.70;;
1004;SDS011;491;53.480;10.174;2023-04-25T05:30:44;7.73;;;2.40;;
1004;SDS011;491;53.480;10.174;2023-04-25T05:33:09;10.67;;;3.30;;
1004;SDS011;491;53.480;10.174;2023-04-25T05:35:35;9.33;;;2.50;;
1004;SDS011;491;53.480;10.174;2023-04-25T05:38:00;12.13;;;1.20;;
1004;SDS011;491;53.480;10.174;2023-04-25T05:40:26;8.93;;;2.00;;
1004;SDS011;491;53.480;10.174;2023-04-25T05:42:52;8.67;;;1.93;;
1004;SDS011;491;53.480;10.174;2023-04-25T05:45:17;18.67;;;2.50;;
1004;SDS011;491;53.480;10.174;2023-04-25T05:47:43;4.10;;;1.50;;
1004;SDS011;491;53.480;10.174;2023-04-25T05:50:08;9.10;;;1.53;;
1004;SDS011;491;53.480;10.174;2023-04-25T05:52:34;7.20;;;1.93;;
1004;SDS011;491;53.480;10.174;2023-04-25T05:55:00;5.63;;;0.80;;
1004;SDS011;491;53.480;10.174;2023-04-25T05:57:26;7.77;;;1.37;;
1004;SDS011;491;53.480;10.174;2023-04-25T05:59:52;7.50;;;1.80;;
1004;SDS011;491;53.480;10.174;2023-04-25T06:02:19;8.47;;;1.17;;
1004;SDS011;491;53.480;10.174;2023-04-25T06:04:45;4.90;;;1.93;;
1004;SDS011;491;53.480;10.174;2023-04-25T06:07:11;10.43;;;2.10;;
1004;SDS011;491;53.480;10.174;2023-04-25T06:09:37;8.27;;;3.00;;
1004;SDS011;491;53.480;10.174;2023-04-25T06:12:04;8.03;;;2.17;;
1004;SDS011;491;53.480;10.174;2023-04-25T06:14:30;4.50;;;1.80;;
1004;SDS011;491;53.480;10.174;2023-04-25T06:16:56;10.57;;;2.20;;
1004;SDS011;491;53.480;10.174;2023-04-25T06:19:22;4.87;;;0.97;;
1004;SDS011;491;53.480;10.174;2023-04-25T06:21:50;10.07;;;1.70;;
1004;SDS011;491;53.480;10.174;2023-04-25T06:24:16;9.03;;;2.23;;
1004;SDS011;491;53.480;10.174;2023-04-25T06:26:41;8.17;;;1.10;;
1004;SDS011;491;53.480;10.174;2023-04-25T06:29:07;5.17;;;0.90;;
1004;SDS011;491;53.480;10.174;2023-04-25T06:31:35;4.00;;;0.63;;
1004;SDS011;491;53.480;10.174;2023-04-25T06:34:00;7.13;;;1.87;;
1004;SDS011;491;53.480;10.174;2023-04-25T06:36:27;5.13;;;1.90;;
1004;SDS011;491;53.480;10.174;2023-04-25T06:38:52;6.47;;;1.20;;
1004;SDS011;491;53.480;10.174;2023-04-25T06:41:19;6.73;;;1.37;;
1004;SDS011;491;53.480;10.174;2023-04-25T06:43:44;7.07;;;1.30;;
1004;SDS011;491;53.480;10.174;2023-04-25T06:46:10;6.53;;;1.60;;
1004;SDS011;491;53.480;10.174;2023-04-25T06:48:36;8.53;;;1.50;;
1004;SDS011;491;53.480;10.174;2023-04-25T06:51:01;7.70;;;1.53;;
1004;SDS011;491;53.480;10.174;2023-04-25T06:53:27;7.70;;;1.70;;
1004;SDS011;491;53.480;10.174;2023-04-25T06:55:53;6.27;;;1.23;;
1004;SDS011;491;53.480;10.174;2023-04-25T06:58:21;9.63;;;3.60;;
1004;SDS011;491;53.480;10.174;2023-04-25T07:00:47;9.00;;;1.40;;
1004;SDS011;491;53.480;10.174;2023-04-25T07:03:12;6.90;;;1.90;;
1004;SDS011;491;53.480;10.174;2023-04-25T07:05:38;10.67;;;2.23;;
1004;SDS011;491;53.480;10.174;2023-04-25T07:08:03;10.00;;;2.10;;
1004;SDS011;491;53.480;10.174;2023-04-25T07:10:29;4.47;;;1.50;;
1004;SDS011;491;53.480;10.174;2023-04-25T07:12:55;7.93;;;1.20;;
1004;SDS011;491;53.480;10.174;2023-04-25T07:15:20;5.97;;;2.00;;
1004;SDS011;491;53.480;10.174;2023-04-25T07:17:46;2.37;;;0.80;;
1004;SDS011;491;53.480;10.174;2023-04-25T07:20:11;3.20;;;1.00;;
1004;SDS011;491;53.480;10.174;2023-04-25T07:22:37;9.13;;;1.70;;
1004;SDS011;491;53.480;10.174;2023-04-25T07:25:02;7.43;;;1.07;;
1004;SDS011;491;53.480;10.174;2023-04-25T07:27:29;6.37;;;1.07;;
1004;SDS011;491;53.480;10.174;2023-04-25T07:29:57;7.93;;;1.90;;
1004;SDS011;491;53.480;10.174;2023-04-25T07:32:27;7.90;;;1.63;;
1004;SDS011;491;53.480;10.174;2023-04-25T07:34:54;5.93;;;0.87;;
1004;SDS011;491;53.480;10.174;2023-04-25T07:37:19;10.47;;;0.90;;
1004;SDS011;491;53.480;10.174;2023-04-25T07:39:45;6.03;;;0.67;;
1004;SDS011;491;53.480;10.174;2023-04-25T07:42:13;6.83;;;1.30;;
1004;SDS011;491;53.480;10.174;2023-04-25T07:44:42;9.10;;;0.93;;
1004;SDS011;491;53.480;10.174;2023-04-25T07:47:09;8.13;;;1.37;;
1004;SDS011;491;53.480;10.174;2023-04-25T07:49:36;4.23;;;1.20;;
1004;SDS011;491;53.480;10.174;2023-04-25T07:52:04;9.60;;;1.03;;
1004;SDS011;491;53.480;10.174;2023-04-25T07:54:39;4.80;;;1.37;;
1004;SDS011;491;53.480;10.174;2023-04-25T07:57:16;5.80;;;1.47;;
1004;SDS011;491;53.480;10.174;2023-04-25T07:59:42;8.60;;;1.60;;
1004;SDS011;491;53.480;10.174;2023-04-25T08:02:12;8.10;;;1.43;;
1004;SDS011;491;53.480;10.174;2023-04-25T08:04:44;6.37;;;1.10;;
1004;SDS011;491;53.480;10.174;2023-04-25T08:07:11;5.10;;;0.93;;
1004;SDS011;491;53.480;10.174;2023-04-25T08:09:40;9.23;;;1.30;;
1004;SDS011;491;53.480;10.174;2023-04-25T08:12:06;6.87;;;1.70;;
1004;SDS011;491;53.480;10.174;2023-04-25T08:14:38;5.30;;;0.30;;
1004;SDS011;491;53.480;10.174;2023-04-25T08:17:09;5.13;;;1.27;;
1004;SDS011;491;53.480;10.174;2023-04-25T08:19:38;7.30;;;0.93;;
1004;SDS011;491;53.480;10.174;2023-04-25T08:22:04;6.27;;;1.60;;
1004;SDS011;491;53.480;10.174;2023-04-25T08:24:42;4.73;;;1.50;;
1004;SDS011;491;53.480;10.174;2023-04-25T08:27:11;7.83;;;1.43;;
1004;SDS011;491;53.480;10.174;2023-04-25T08:29:37;6.23;;;0.67;;
1004;SDS011;491;53.480;10.174;2023-04-25T08:32:03;3.80;;;1.13;;
1004;SDS011;491;53.480;10.174;2023-04-25T08:34:29;4.70;;;0.93;;
1004;SDS011;491;53.480;10.174;2023-04-25T08:36:54;6.70;;;0.80;;
1004;SDS011;491;53.480;10.174;2023-04-25T08:39:20;7.23;;;0.80;;
1004;SDS011;491;53.480;10.174;2023-04-25T08:41:53;3.33;;;1.13;;
1004;SDS011;491;53.480;10.174;2023-04-25T08:44:18;6.00;;;0.90;;
1004;SDS011;491;53.480;10.174;2023-04-25T08:46:45;6.77;;;1.30;;
1004;SDS011;491;53.480;10.174;2023-04-25T08:49:15;8.30;;;1.47;;
1004;SDS011;491;53.480;10.174;2023-04-25T08:51:45;5.07;;;0.83;;
1004;SDS011;491;53.480;10.174;2023-04-25T08:54:12;4.83;;;0.80;;
1004;SDS011;491;53.480;10.174;2023-04-25T08:56:45;5.23;;;0.77;;
1004;SDS011;491;53.480;10.174;2023-04-25T08:59:13;4.67;;;0.63;;
1004;SDS011;491;53.480;10.174;2023-04-25T09:01:38;4.13;;;1.10;;
1004;SDS011;491;53.480;10.174;2023-04-25T09:04:04;5.13;;;0.40;;
1004;SDS011;491;53.480;10.174;2023-04-25T09:06:30;4.37;;;0.30;;
1004;SDS011;491;53.480;10.174;2023-04-25T09:09:06;6.17;;;1.57;;
1004;SDS011;491;53.480;10.174;2023-04-25T09:11:33;5.30;;;1.70;;
1004;SDS011;491;53.480;10.174;2023-04-25T09:14:19;4.90;;;0.50;;
1004;SDS011;491;53.480;10.174;2023-04-25T09:19:28;3.30;;;0.30;;
1004;SDS011;491;53.480;10.174;2023-04-25T09:22:03;6.97;;;0.90;;
1004;SDS011;491;53.480;10.174;2023-04-25T09:24:30;4.37;;;0.60;;
1004;SDS011;491;53.480;10.174;2023-04-25T09:27:10;3.80;;;0.80;;
1004;SDS011;491;53.480;10.174;2023-04-25T09:29:44;2.40;;;0.67;;
1004;SDS011;491;53.480;10.174;2023-04-25T09:32:21;2.00;;;0.37;;
1004;SDS011;491;53.480;10.174;2023-04-25T09:34:49;3.07;;;1.17;;
1004;SDS011;491;53.480;10.174;2023-04-25T09:37:29;2.10;;;0.63;;
1004;SDS011;491;53.480;10.174;2023-04-25T09:39:57;5.67;;;0.77;;
1004;SDS011;491;53.480;10.174;2023-04-25T09:42:29;4.57;;;0.47;;
1004;SDS011;491;53.480;10.174;2023-04-25T09:45:05;1.70;;;0.33;;
1004;SDS011;491;53.480;10.174;2023-04-25T09:47:36;4.53;;;0.77;;
1004;SDS011;491;53.480;10.174;2023-04-25T09:50:04;6.43;;;0.97;;
1004;SDS011;491;53.480;10.174;2023-04-25T09:52:44;5.83;;;0.43;;
1004;SDS011;491;53.480;10.174;2023-04-25T09:55:11;10.03;;;1.33;;
1004;SDS011;491;53.480;10.174;2023-04-25T09:57:36;5.93;;;0.67;;
1004;SDS011;491;53.480;10.174;2023-04-25T10:00:05;6.80;;;1.27;;
1004;SDS011;491;53.480;10.174;2023-04-25T10:02:35;3.10;;;0.50;;
1004;SDS011;491;53.480;10.174;2023-04-25T10:05:05;2.90;;;0.90;;
1004;SDS011;491;53.480;10.174;2023-04-25T10:07:32;3.87;;;0.40;;
1004;SDS011;491;53.480;10.174;2023-04-25T10:10:01;4.27;;;1.30;;
1004;SDS011;491;53.480;10.174;2023-04-25T10:12:28;1.30;;;0.73;;
1004;SDS011;491;53.480;10.174;2023-04-25T10:14:55;2.37;;;0.50;;
1004;SDS011;491;53.480;10.174;2023-04-25T10:17:23;2.07;;;0.33;;
1004;SDS011;491;53.480;10.174;2023-04-25T10:19:49;4.03;;;0.33;;
1004;SDS011;491;53.480;10.174;2023-04-25T10:22:35;3.73;;;0.93;;
1004;SDS011;491;53.480;10.174;2023-04-25T10:25:03;3.60;;;0.83;;
1004;SDS011;491;53.480;10.174;2023-04-25T10:27:29;4.40;;;0.77;;
1004;SDS011;491;53.480;10.174;2023-04-25T10:32:30;2.73;;;0.80;;
1004;SDS011;491;53.480;10.174;2023-04-25T10:34:57;2.47;;;0.30;;
1004;SDS011;491;53.480;10.174;2023-04-25T10:37:23;2.13;;;0.80;;
1004;SDS011;491;53.480;10.174;2023-04-25T10:39:49;2.67;;;0.67;;
1004;SDS011;491;53.480;10.174;2023-04-25T10:42:14;4.10;;;0.40;;
1004;SDS011;491;53.480;10.174;2023-04-25T10:44:40;8.20;;;0.67;;
1004;SDS011;491;53.480;10.174;2023-04-25T10:47:34;2.63;;;0.77;;
1004;SDS011;491;53.480;10.174;2023-04-25T10:50:04;2.07;;;0.40;;
1004;SDS011;491;53.480;10.174;2023-04-25T10:52:32;5.20;;;0.67;;
1004;SDS011;491;53.480;10.174;2023-04-25T10:54:58;3.10;;;0.80;;
1004;SDS011;491;53.480;10.174;2023-04-25T10:57:29;5.77;;;0.83;;
1004;SDS011;491;53.480;10.174;2023-04-25T11:00:01;6.87;;;0.97;;
1004;SDS011;491;53.480;10.174;2023-04-25T11:02:40;3.97;;;0.50;;
1004;SDS011;491;53.480;10.174;2023-04-25T11:05:16;3.40;;;0.87;;
1004;SDS011;491;53.480;10.174;2023-04-25T11:07:57;4.83;;;1.10;;
1004;SDS011;491;53.480;10.174;2023-04-25T11:10:26;2.17;;;0.47;;
1004;SDS011;491;53.480;10.174;2023-04-25T11:12:52;5.20;;;1.00;;
1004;SDS011;491;53.480;10.174;2023-04-25T11:15:18;2.63;;;0.47;;
1004;SDS011;491;53.480;10.174;2023-04-25T11:17:43;1.80;;;0.60;;
1004;SDS011;491;53.480;10.174;2023-04-25T11:20:11;1.93;;;0.47;;
1004;SDS011;491;53.480;10.174;2023-04-25T11:22:39;4.20;;;1.13;;
1004;SDS011;491;53.480;10.174;2023-04-25T11:25:06;4.83;;;0.63;;
1004;SDS011;491;53.480;10.174;2023-04-25T11:27:32;3.77;;;0.77;;
1004;SDS011;491;53.480;10.174;2023-04-25T11:29:58;3.83;;;0.60;;
1004;SDS011;491;53.480;10.174;2023-04-25T11:32:23;3.50;;;0.47;;
1004;SDS011;491;53.480;10.174;2023-04-25T11:34:49;3.33;;;0.60;;
1004;SDS011;491;53.480;10.174;2023-04-25T11:37:14;5.80;;;1.13;;
1004;SDS011;491;53.480;10.174;2023-04-25T11:39:43;1.53;;;0.33;;
1004;SDS011;491;53.480;10.174;2023-04-25T11:42:11;4.50;;;0.50;;
1004;SDS011;491;53.480;10.174;2023-04-25T11:44:37;2.13;;;0.87;;
1004;SDS011;491;53.480;10.174;2023-04-25T11:47:05;2.60;;;1.00;;
1004;SDS011;491;53.480;10.174;2023-04-25T11:49:31;2.27;;;0.87;;
1004;SDS011;491;53.480;10.174;2023-04-25T11:51:57;3.10;;;0.70;;
1004;SDS011;491;53.480;10.174;2023-04-25T11:54:22;2.40;;;0.50;;
1004;SDS011;491;53.480;10.174;2023-04-25T11:56:48;1.70;;;0.50;;
1004;SDS011;491;53.480;10.174;2023-04-25T11:59:16;2.33;;;0.33;;
1004;SDS011;491;53.480;10.174;2023-04-25T12:01:47;2.57;;;0.40;;
1004;SDS011;491;53.480;10.174;2023-04-25T12:04:17;2.07;;;0.37;;
1004;SDS011;491;53.480;10.174;2023-04-25T12:06:47;1.57;;;0.27;;
1004;SDS011;491;53.480;10.174;2023-04-25T12:09:16;0.83;;;0.30;;
1004;SDS011;491;53.480;10.174;2023-04-25T12:11:47;1.27;;;0.60;;
1004;SDS011;491;53.480;10.174;2023-04-25T12:14:20;3.43;;;0.33;;
1004;SDS011;491;53.480;10.174;2023-04-25T12:16:48;2.77;;;0.80;;
1004;SDS011;491;53.480;10.174;2023-04-25T12:19:16;1.07;;;0.40;;
1004;SDS011;491;53.480;10.174;2023-04-25T12:21:42;5.03;;;0.20;;
1004;SDS011;491;53.480;10.174;2023-04-25T12:29:24;3.80;;;0.80;;
1004;SDS011;491;53.480;10.174;2023-04-25T12:31:51;6.00;;;0.77;;
1004;SDS011;491;53.480;10.174;2023-04-25T12:34:18;0.87;;;0.30;;
1004;SDS011;491;53.480;10.174;2023-04-25T12:36:44;1.90;;;0.40;;
1004;SDS011;491;53.480;10.174;2023-04-25T12:39:23;2.33;;;0.60;;
1004;SDS011;491;53.480;10.174;2023-04-25T12:41:53;3.00;;;0.87;;
1004;SDS011;491;53.480;10.174;2023-04-25T12:44:19;1.43;;;0.50;;
1004;SDS011;491;53.480;10.174;2023-04-25T12:46:45;2.47;;;0.53;;
1004;SDS011;491;53.480;10.174;2023-04-25T12:49:11;3.43;;;1.00;;
1004;SDS011;491;53.480;10.174;2023-04-25T12:51:36;2.13;;;0.67;;
1004;SDS011;491;53.480;10.174;2023-04-25T12:54:03;4.07;;;0.50;;
1004;SDS011;491;53.480;10.174;2023-04-25T12:56:30;1.60;;;0.30;;
1004;SDS011;491;53.480;10.174;2023-04-25T12:58:56;3.33;;;1.03;;
1004;SDS011;491;53.480;10.174;2023-04-25T13:01:22;4.97;;;0.80;;
1004;SDS011;491;53.480;10.174;2023-04-25T13:03:48;2.30;;;0.40;;
1004;SDS011;491;53.480;10.174;2023-04-25T13:08:52;1.03;;;0.33;;
1004;SDS011;491;53.480;10.174;2023-04-25T13:11:19;3.57;;;0.90;;
1004;SDS011;491;53.480;10.174;2023-04-25T13:13:45;1.90;;;0.30;;
1004;SDS011;491;53.480;10.174;2023-04-25T13:16:10;3.03;;;0.43;;
1004;SDS011;491;53.480;10.174;2023-04-25T13:18:38;5.10;;;0.40;;
1004;SDS011;491;53.480;10.174;2023-04-25T13:21:04;1.63;;;0.43;;
1004;SDS011;491;53.480;10.174;2023-04-25T13:23:30;3.30;;;0.77;;
1004;SDS011;491;53.480;10.174;2023-04-25T13:25:56;6.20;;;0.33;;
1004;SDS011;491;53.480;10.174;2023-04-25T13:28:26;2.70;;;0.53;;
1004;SDS011;491;53.480;10.174;2023-04-25T13:30:52;1.17;;;0.60;;
1004;SDS011;491;53.480;10.174;2023-04-25T13:33:18;4.07;;;0.60;;
1004;SDS011;491;53.480;10.174;2023-04-25T13:35:45;3.40;;;0.93;;
1004;SDS011;491;53.480;10.174;2023-04-25T13:38:21;2.43;;;0.60;;
1004;SDS011;491;53.480;10.174;2023-04-25T13:40:48;4.83;;;0.70;;
1004;SDS011;491;53.480;10.174;2023-04-25T13:43:15;0.90;;;0.30;;
1004;SDS011;491;53.480;10.174;2023-04-25T13:45:41;5.50;;;0.50;;
1004;SDS011;491;53.480;10.174;2023-04-25T13:48:06;2.20;;;0.40;;
1004;SDS011;491;53.480;10.174;2023-04-25T13:50:34;1.87;;;0.70;;
1004;SDS011;491;53.480;10.174;2023-04-25T13:53:00;1.73;;;0.30;;
1004;SDS011;491;53.480;10.174;2023-04-25T13:55:26;4.40;;;1.20;;
1004;SDS011;491;53.480;10.174;2023-04-25T13:57:51;4.03;;;1.10;;
1004;SDS011;491;53.480;10.174;2023-04-25T14:00:17;3.30;;;0.77;;
1004;SDS011;491;53.480;10.174;2023-04-25T14:02:42;1.90;;;0.47;;
1004;SDS011;491;53.480;10.174;2023-04-25T14:05:11;6.60;;;0.90;;
1004;SDS011;491;53.480;10.174;2023-04-25T14:07:36;3.90;;;0.63;;
1004;SDS011;491;53.480;10.174;2023-04-25T14:10:02;3.00;;;0.50;;
1004;SDS011;491;53.480;10.174;2023-04-25T14:12:29;3.07;;;0.50;;
1004;SDS011;491;53.480;10.174;2023-04-25T14:14:55;1.53;;;0.57;;
1004;SDS011;491;53.480;10.174;2023-04-25T14:17:20;1.40;;;0.53;;
1004;SDS011;491;53.480;10.174;2023-04-25T14:19:45;2.30;;;0.53;;
1004;SDS011;491;53.480;10.174;2023-04-25T14:22:12;6.23;;;0.67;;
1004;SDS011;491;53.480;10.174;2023-04-25T14:24:39;2.60;;;0.40;;
1004;SDS011;491;53.480;10.174;2023-04-25T14:27:04;4.40;;;0.60;;
1004;SDS011;491;53.480;10.174;2023-04-25T14:29:31;3.10;;;0.87;;
1004;SDS011;491;53.480;10.174;2023-04-25T14:31:56;9.00;;;1.10;;
1004;SDS011;491;53.480;10.174;2023-04-25T14:34:23;5.93;;;1.33;;
1004;SDS011;491;53.480;10.174;2023-04-25T14:36:53;6.83;;;0.60;;
1004;SDS011;491;53.480;10.174;2023-04-25T14:39:18;4.30;;;0.73;;
1004;SDS011;491;53.480;10.174;2023-04-25T14:41:47;4.00;;;0.67;;
1004;SDS011;491;53.480;10.174;2023-04-25T14:44:12;2.50;;;0.50;;
1004;SDS011;491;53.480;10.174;2023-04-25T14:46:38;2.27;;;0.40;;
1004;SDS011;491;53.480;10.174;2023-04-25T14:49:03;4.17;;;0.70;;
1004;SDS011;491;53.480;10.174;2023-04-25T14:51:29;4.33;;;0.40;;
1004;SDS011;491;53.480;10.174;2023-04-25T14:53:56;4.27;;;0.37;;
1004;SDS011;491;53.480;10.174;2023-04-25T14:56:21;2.77;;;0.40;;
1004;SDS011;491;53.480;10.174;2023-04-25T14:58:47;4.63;;;0.70;;
1004;SDS011;491;53.480;10.174;2023-04-25T15:01:14;2.67;;;0.50;;
1004;SDS011;491;53.480;10.174;2023-04-25T15:03:40;5.90;;;1.10;;
1004;SDS011;491;53.480;10.174;2023-04-25T15:06:05;5.13;;;0.67;;
1004;SDS011;491;53.480;10.174;2023-04-25T15:08:31;2.70;;;0.57;;
1004;SDS011;491;53.480;10.174;2023-04-25T15:10:57;4.70;;;0.40;;
1004;SDS011;491;53.480;10.174;2023-04-25T15:13:23;2.30;;;0.50;;
1004;SDS011;491;53.480;10.174;2023-04-25T15:15:49;3.23;;;0.53;;
1004;SDS011;491;53.480;10.174;2023-04-25T15:18:16;4.53;;;0.90;;
1004;SDS011;491;53.480;10.174;2023-04-25T15:20:43;1.33;;;0.50;;
1004;SDS011;491;53.480;10.174;2023-04-25T15:23:08;4.27;;;0.60;;
1004;SDS011;491;53.480;10.174;2023-04-25T15:25:36;2.63;;;0.40;;